Clemson, South Carolina
Current Conditions -  °F | °C
As of 11:54 AM on Saturday 22 Nov 2014 (Local Time) from KCEU Reporting Station
Clear Clear  
Wind Chill: 52°   Ceiling: Unl
Heat Index: 52°   Visibility: 10mi
Dew Point: 19°   Wind: 3mph
Humidity: 27%   Direction: 50°NE
Pressure: 30.48"   Gusts: NA
Location:  34.68°N, 82.84°W
Report Text: KCEU 221654Z AUTO 05003KT 10SM CLR 11/M07 A3048 RMK AO2 SLP323 T01111072
Loading
Personal Weather Stations






























Interactive Weather Map New forecast layout! Learn more

10-Day Weather Forecast

Advertisements
Track Severe Weather on mobile